Main page
METAR-TAF:

METAR-TAF

Airports :

Linköping City Airport

Linköping, Sweden

latitude: 58-24N, longitude: 015-41E, elevation: 52 m

Current weather observation

The report was made 27 minutes ago, at 17:50 UTC
Wind 7 kt from the Northwest
Temperature 22°C
Humidity 53%
Pressure 1012 hPa
Visibility 10 km or more

METAR: ESSL 231750Z AUTO 31007KT 9999 FEW048/// 22/12 Q1012

Time: 20:17 (18:17 UTC)

Forecast

The report was made 3 hours and 47 minutes ago, at 14:30 UTC
Forecast valid from 23 at 15 UTC to 23 at 17 UTC
Wind 8 kt from the West/Northwest
Visibility 10 km or more
Scattered clouds at a height of 3500 ft

TAF: ESSL 231430Z 2315/2317 29008KT 9999 SCT035

Weather observations and forecasts of more than 4000 airports (METAR and TAF reports).

The available stations are represented by yellow and red dots on the map.

Hover mouse over dot to see the name of the station.

Then click to see weather observations and forecasts.

To change the map : click on the green buttons with a black cross to zoom in, on the green button with a dash to zoom out, or on the green arrows for adjacent maps.


METAR-TAF: